sensor_id;sensor_type;location;lat;lon;timestamp;P1;durP1;ratioP1;P2;durP2;ratioP2
56728;SDS011;42612;52.232;7.560;2024-01-16T00:00:33;1.55;;;0.73;;
56728;SDS011;42612;52.232;7.560;2024-01-16T00:02:59;3.42;;;1.00;;
56728;SDS011;42612;52.232;7.560;2024-01-16T00:05:25;4.18;;;1.17;;
56728;SDS011;42612;52.232;7.560;2024-01-16T00:07:51;1.65;;;0.88;;
56728;SDS011;42612;52.232;7.560;2024-01-16T00:10:16;7.53;;;0.98;;
56728;SDS011;42612;52.232;7.560;2024-01-16T00:12:42;5.70;;;1.20;;
56728;SDS011;42612;52.232;7.560;2024-01-16T00:15:08;7.05;;;1.45;;
56728;SDS011;42612;52.232;7.560;2024-01-16T00:17:34;2.97;;;1.10;;
56728;SDS011;42612;52.232;7.560;2024-01-16T00:20:00;8.27;;;1.45;;
56728;SDS011;42612;52.232;7.560;2024-01-16T00:22:27;3.53;;;1.10;;
56728;SDS011;42612;52.232;7.560;2024-01-16T00:24:53;5.78;;;1.85;;
56728;SDS011;42612;52.232;7.560;2024-01-16T00:27:18;5.70;;;1.60;;
56728;SDS011;42612;52.232;7.560;2024-01-16T00:29:44;3.78;;;1.50;;
56728;SDS011;42612;52.232;7.560;2024-01-16T00:32:10;3.95;;;1.50;;
56728;SDS011;42612;52.232;7.560;2024-01-16T00:34:36;7.60;;;1.52;;
56728;SDS011;42612;52.232;7.560;2024-01-16T00:37:01;7.10;;;2.00;;
56728;SDS011;42612;52.232;7.560;2024-01-16T00:39:27;4.13;;;1.20;;
56728;SDS011;42612;52.232;7.560;2024-01-16T00:41:53;7.15;;;1.88;;
56728;SDS011;42612;52.232;7.560;2024-01-16T00:44:18;4.05;;;2.15;;
56728;SDS011;42612;52.232;7.560;2024-01-16T00:46:44;4.45;;;1.70;;
56728;SDS011;42612;52.232;7.560;2024-01-16T00:49:10;6.32;;;1.95;;
56728;SDS011;42612;52.232;7.560;2024-01-16T00:51:35;3.45;;;1.50;;
56728;SDS011;42612;52.232;7.560;2024-01-16T00:54:01;6.22;;;1.90;;
56728;SDS011;42612;52.232;7.560;2024-01-16T00:56:27;6.07;;;1.88;;
56728;SDS011;42612;52.232;7.560;2024-01-16T00:58:53;4.43;;;1.55;;
56728;SDS011;42612;52.232;7.560;2024-01-16T01:01:19;5.78;;;1.80;;
56728;SDS011;42612;52.232;7.560;2024-01-16T01:03:45;4.68;;;1.48;;
56728;SDS011;42612;52.232;7.560;2024-01-16T01:06:11;6.57;;;2.05;;
56728;SDS011;42612;52.232;7.560;2024-01-16T01:08:37;7.50;;;1.55;;
56728;SDS011;42612;52.232;7.560;2024-01-16T01:11:02;3.75;;;1.65;;
56728;SDS011;42612;52.232;7.560;2024-01-16T01:13:28;3.15;;;1.40;;
56728;SDS011;42612;52.232;7.560;2024-01-16T01:15:54;4.00;;;1.55;;
56728;SDS011;42612;52.232;7.560;2024-01-16T01:18:20;7.07;;;2.17;;
56728;SDS011;42612;52.232;7.560;2024-01-16T01:20:45;7.85;;;2.08;;
56728;SDS011;42612;52.232;7.560;2024-01-16T01:23:11;4.40;;;1.30;;
56728;SDS011;42612;52.232;7.560;2024-01-16T01:25:37;3.67;;;1.58;;
56728;SDS011;42612;52.232;7.560;2024-01-16T01:28:03;3.15;;;1.42;;
56728;SDS011;42612;52.232;7.560;2024-01-16T01:30:29;6.20;;;2.58;;
56728;SDS011;42612;52.232;7.560;2024-01-16T01:32:55;4.88;;;1.80;;
56728;SDS011;42612;52.232;7.560;2024-01-16T01:35:20;9.93;;;1.83;;
56728;SDS011;42612;52.232;7.560;2024-01-16T01:37:46;6.07;;;2.28;;
56728;SDS011;42612;52.232;7.560;2024-01-16T01:40:12;5.30;;;1.70;;
56728;SDS011;42612;52.232;7.560;2024-01-16T01:42:40;3.05;;;1.42;;
56728;SDS011;42612;52.232;7.560;2024-01-16T01:45:07;11.80;;;2.58;;
56728;SDS011;42612;52.232;7.560;2024-01-16T01:47:35;7.05;;;1.60;;
56728;SDS011;42612;52.232;7.560;2024-01-16T01:50:01;4.63;;;1.55;;
56728;SDS011;42612;52.232;7.560;2024-01-16T01:52:28;3.90;;;1.83;;
56728;SDS011;42612;52.232;7.560;2024-01-16T01:54:56;6.65;;;1.65;;
56728;SDS011;42612;52.232;7.560;2024-01-16T01:57:22;6.18;;;1.85;;
56728;SDS011;42612;52.232;7.560;2024-01-16T01:59:48;4.70;;;1.60;;
56728;SDS011;42612;52.232;7.560;2024-01-16T02:02:14;5.10;;;1.33;;
56728;SDS011;42612;52.232;7.560;2024-01-16T02:04:40;4.78;;;1.20;;
56728;SDS011;42612;52.232;7.560;2024-01-16T02:07:08;4.25;;;1.60;;
56728;SDS011;42612;52.232;7.560;2024-01-16T02:09:35;5.03;;;1.85;;
56728;SDS011;42612;52.232;7.560;2024-01-16T02:12:02;5.35;;;1.40;;
56728;SDS011;42612;52.232;7.560;2024-01-16T02:14:30;6.40;;;1.75;;
56728;SDS011;42612;52.232;7.560;2024-01-16T02:16:55;3.22;;;1.30;;
56728;SDS011;42612;52.232;7.560;2024-01-16T02:19:21;5.28;;;1.38;;
56728;SDS011;42612;52.232;7.560;2024-01-16T02:21:47;5.63;;;1.92;;
56728;SDS011;42612;52.232;7.560;2024-01-16T02:24:14;5.72;;;1.20;;
56728;SDS011;42612;52.232;7.560;2024-01-16T02:26:41;5.18;;;1.42;;
56728;SDS011;42612;52.232;7.560;2024-01-16T02:29:07;2.42;;;1.27;;
56728;SDS011;42612;52.232;7.560;2024-01-16T02:31:34;2.50;;;1.23;;
56728;SDS011;42612;52.232;7.560;2024-01-16T02:34:00;3.25;;;1.35;;
56728;SDS011;42612;52.232;7.560;2024-01-16T02:36:26;7.20;;;2.58;;
56728;SDS011;42612;52.232;7.560;2024-01-16T02:38:54;9.25;;;1.70;;
56728;SDS011;42612;52.232;7.560;2024-01-16T02:41:20;4.97;;;1.35;;
56728;SDS011;42612;52.232;7.560;2024-01-16T02:43:46;3.40;;;1.10;;
56728;SDS011;42612;52.232;7.560;2024-01-16T02:46:12;3.97;;;1.83;;
56728;SDS011;42612;52.232;7.560;2024-01-16T02:48:39;7.80;;;1.45;;
56728;SDS011;42612;52.232;7.560;2024-01-16T02:53:33;5.72;;;1.35;;
56728;SDS011;42612;52.232;7.560;2024-01-16T02:55:59;9.38;;;2.30;;
56728;SDS011;42612;52.232;7.560;2024-01-16T02:58:26;6.43;;;1.35;;
56728;SDS011;42612;52.232;7.560;2024-01-16T03:00:52;3.85;;;1.30;;
56728;SDS011;42612;52.232;7.560;2024-01-16T03:03:18;5.72;;;1.20;;
56728;SDS011;42612;52.232;7.560;2024-01-16T03:05:45;6.05;;;1.80;;
56728;SDS011;42612;52.232;7.560;2024-01-16T03:08:11;2.55;;;1.73;;
56728;SDS011;42612;52.232;7.560;2024-01-16T03:10:37;6.95;;;2.00;;
56728;SDS011;42612;52.232;7.560;2024-01-16T03:13:03;4.85;;;1.90;;
56728;SDS011;42612;52.232;7.560;2024-01-16T03:15:29;5.00;;;1.90;;
56728;SDS011;42612;52.232;7.560;2024-01-16T03:17:56;7.10;;;1.75;;
56728;SDS011;42612;52.232;7.560;2024-01-16T03:20:26;5.30;;;2.25;;
56728;SDS011;42612;52.232;7.560;2024-01-16T03:22:52;2.63;;;1.83;;
56728;SDS011;42612;52.232;7.560;2024-01-16T03:25:18;7.88;;;3.08;;
56728;SDS011;42612;52.232;7.560;2024-01-16T03:27:44;4.03;;;2.35;;
56728;SDS011;42612;52.232;7.560;2024-01-16T03:30:10;8.10;;;1.98;;
56728;SDS011;42612;52.232;7.560;2024-01-16T03:32:37;4.53;;;1.77;;
56728;SDS011;42612;52.232;7.560;2024-01-16T03:35:03;5.65;;;2.75;;
56728;SDS011;42612;52.232;7.560;2024-01-16T03:37:31;5.97;;;1.67;;
56728;SDS011;42612;52.232;7.560;2024-01-16T03:39:57;6.23;;;1.50;;
56728;SDS011;42612;52.232;7.560;2024-01-16T03:42:24;4.82;;;2.17;;
56728;SDS011;42612;52.232;7.560;2024-01-16T03:44:50;5.68;;;2.22;;
56728;SDS011;42612;52.232;7.560;2024-01-16T03:47:16;4.82;;;1.73;;
56728;SDS011;42612;52.232;7.560;2024-01-16T03:49:42;6.57;;;1.65;;
56728;SDS011;42612;52.232;7.560;2024-01-16T03:52:08;3.22;;;1.80;;
56728;SDS011;42612;52.232;7.560;2024-01-16T03:54:33;8.57;;;2.20;;
56728;SDS011;42612;52.232;7.560;2024-01-16T03:56:59;6.07;;;2.28;;
56728;SDS011;42612;52.232;7.560;2024-01-16T03:59:25;3.42;;;1.52;;
56728;SDS011;42612;52.232;7.560;2024-01-16T04:01:51;7.50;;;1.98;;
56728;SDS011;42612;52.232;7.560;2024-01-16T04:04:17;5.10;;;2.42;;
56728;SDS011;42612;52.232;7.560;2024-01-16T04:06:44;4.20;;;1.52;;
56728;SDS011;42612;52.232;7.560;2024-01-16T04:09:11;5.25;;;1.70;;
56728;SDS011;42612;52.232;7.560;2024-01-16T04:11:36;12.35;;;1.70;;
56728;SDS011;42612;52.232;7.560;2024-01-16T04:14:02;4.93;;;1.55;;
56728;SDS011;42612;52.232;7.560;2024-01-16T04:16:29;4.00;;;1.93;;
56728;SDS011;42612;52.232;7.560;2024-01-16T04:18:55;6.63;;;1.92;;
56728;SDS011;42612;52.232;7.560;2024-01-16T04:21:20;3.75;;;1.52;;
56728;SDS011;42612;52.232;7.560;2024-01-16T04:23:46;4.35;;;2.17;;
56728;SDS011;42612;52.232;7.560;2024-01-16T04:26:12;6.80;;;1.75;;
56728;SDS011;42612;52.232;7.560;2024-01-16T04:28:38;7.10;;;2.47;;
56728;SDS011;42612;52.232;7.560;2024-01-16T04:31:04;5.20;;;1.90;;
56728;SDS011;42612;52.232;7.560;2024-01-16T04:33:29;3.17;;;1.50;;
56728;SDS011;42612;52.232;7.560;2024-01-16T04:35:55;4.25;;;2.28;;
56728;SDS011;42612;52.232;7.560;2024-01-16T04:38:21;4.80;;;1.88;;
56728;SDS011;42612;52.232;7.560;2024-01-16T04:40:48;6.55;;;2.00;;
56728;SDS011;42612;52.232;7.560;2024-01-16T04:43:14;4.80;;;1.65;;
56728;SDS011;42612;52.232;7.560;2024-01-16T04:45:40;7.43;;;1.92;;
56728;SDS011;42612;52.232;7.560;2024-01-16T04:48:06;4.45;;;1.83;;
56728;SDS011;42612;52.232;7.560;2024-01-16T04:50:33;5.57;;;2.15;;
56728;SDS011;42612;52.232;7.560;2024-01-16T04:53:00;7.75;;;2.30;;
56728;SDS011;42612;52.232;7.560;2024-01-16T04:55:27;6.47;;;2.43;;
56728;SDS011;42612;52.232;7.560;2024-01-16T04:57:55;4.03;;;2.13;;
56728;SDS011;42612;52.232;7.560;2024-01-16T05:00:22;7.28;;;2.90;;
56728;SDS011;42612;52.232;7.560;2024-01-16T05:02:48;3.47;;;2.35;;
56728;SDS011;42612;52.232;7.560;2024-01-16T05:05:14;6.95;;;2.22;;
56728;SDS011;42612;52.232;7.560;2024-01-16T05:07:41;8.40;;;2.65;;
56728;SDS011;42612;52.232;7.560;2024-01-16T05:10:09;3.13;;;2.17;;
56728;SDS011;42612;52.232;7.560;2024-01-16T05:12:39;5.20;;;2.70;;
56728;SDS011;42612;52.232;7.560;2024-01-16T05:15:06;6.28;;;3.63;;
56728;SDS011;42612;52.232;7.560;2024-01-16T05:17:33;2.80;;;2.30;;
56728;SDS011;42612;52.232;7.560;2024-01-16T05:19:59;6.05;;;2.53;;
56728;SDS011;42612;52.232;7.560;2024-01-16T05:22:28;8.68;;;2.72;;
56728;SDS011;42612;52.232;7.560;2024-01-16T05:24:54;5.20;;;2.70;;
56728;SDS011;42612;52.232;7.560;2024-01-16T05:27:20;6.40;;;2.85;;
56728;SDS011;42612;52.232;7.560;2024-01-16T05:29:45;5.00;;;3.22;;
56728;SDS011;42612;52.232;7.560;2024-01-16T05:32:11;7.80;;;2.92;;
56728;SDS011;42612;52.232;7.560;2024-01-16T05:34:39;6.53;;;3.10;;
56728;SDS011;42612;52.232;7.560;2024-01-16T05:37:04;8.93;;;3.58;;
56728;SDS011;42612;52.232;7.560;2024-01-16T05:39:30;4.70;;;3.00;;
56728;SDS011;42612;52.232;7.560;2024-01-16T05:41:56;6.13;;;3.08;;
56728;SDS011;42612;52.232;7.560;2024-01-16T05:44:21;7.78;;;3.28;;
56728;SDS011;42612;52.232;7.560;2024-01-16T05:46:47;6.38;;;3.38;;
56728;SDS011;42612;52.232;7.560;2024-01-16T05:49:13;5.68;;;3.33;;
56728;SDS011;42612;52.232;7.560;2024-01-16T05:51:38;4.70;;;2.92;;
56728;SDS011;42612;52.232;7.560;2024-01-16T05:54:04;7.85;;;3.50;;
56728;SDS011;42612;52.232;7.560;2024-01-16T05:56:31;8.00;;;3.63;;
56728;SDS011;42612;52.232;7.560;2024-01-16T05:58:57;6.63;;;3.53;;
56728;SDS011;42612;52.232;7.560;2024-01-16T06:01:22;6.00;;;3.17;;
56728;SDS011;42612;52.232;7.560;2024-01-16T06:03:48;6.55;;;3.50;;
56728;SDS011;42612;52.232;7.560;2024-01-16T06:06:14;11.02;;;3.63;;
56728;SDS011;42612;52.232;7.560;2024-01-16T06:08:41;6.03;;;3.47;;
56728;SDS011;42612;52.232;7.560;2024-01-16T06:11:07;7.82;;;4.00;;
56728;SDS011;42612;52.232;7.560;2024-01-16T06:13:32;6.75;;;3.35;;
56728;SDS011;42612;52.232;7.560;2024-01-16T06:15:58;8.63;;;3.40;;
56728;SDS011;42612;52.232;7.560;2024-01-16T06:18:24;5.70;;;2.80;;
56728;SDS011;42612;52.232;7.560;2024-01-16T06:20:49;8.15;;;3.55;;
56728;SDS011;42612;52.232;7.560;2024-01-16T06:23:15;7.07;;;4.25;;
56728;SDS011;42612;52.232;7.560;2024-01-16T06:25:41;6.97;;;3.20;;
56728;SDS011;42612;52.232;7.560;2024-01-16T06:28:06;7.88;;;3.65;;
56728;SDS011;42612;52.232;7.560;2024-01-16T06:30:32;4.45;;;2.85;;
56728;SDS011;42612;52.232;7.560;2024-01-16T06:32:59;6.32;;;3.70;;
56728;SDS011;42612;52.232;7.560;2024-01-16T06:35:24;6.55;;;2.80;;
56728;SDS011;42612;52.232;7.560;2024-01-16T06:37:50;6.72;;;3.97;;
56728;SDS011;42612;52.232;7.560;2024-01-16T06:40:16;5.50;;;3.33;;
56728;SDS011;42612;52.232;7.560;2024-01-16T06:42:42;4.53;;;2.75;;
56728;SDS011;42612;52.232;7.560;2024-01-16T06:45:08;8.52;;;3.17;;
56728;SDS011;42612;52.232;7.560;2024-01-16T06:47:34;8.65;;;3.08;;
56728;SDS011;42612;52.232;7.560;2024-01-16T06:50:00;6.28;;;3.50;;
56728;SDS011;42612;52.232;7.560;2024-01-16T06:52:25;6.53;;;3.15;;
56728;SDS011;42612;52.232;7.560;2024-01-16T06:54:51;7.30;;;3.88;;
56728;SDS011;42612;52.232;7.560;2024-01-16T06:57:17;4.18;;;3.00;;
56728;SDS011;42612;52.232;7.560;2024-01-16T06:59:42;5.10;;;2.95;;
56728;SDS011;42612;52.232;7.560;2024-01-16T07:02:08;7.07;;;2.50;;
56728;SDS011;42612;52.232;7.560;2024-01-16T07:04:34;5.53;;;3.08;;
56728;SDS011;42612;52.232;7.560;2024-01-16T07:07:00;6.88;;;3.72;;
56728;SDS011;42612;52.232;7.560;2024-01-16T07:09:26;6.28;;;3.05;;
56728;SDS011;42612;52.232;7.560;2024-01-16T07:11:52;8.50;;;2.92;;
56728;SDS011;42612;52.232;7.560;2024-01-16T07:14:18;4.47;;;3.10;;
56728;SDS011;42612;52.232;7.560;2024-01-16T07:16:44;7.45;;;3.78;;
56728;SDS011;42612;52.232;7.560;2024-01-16T07:19:11;4.90;;;2.95;;
56728;SDS011;42612;52.232;7.560;2024-01-16T07:21:40;5.93;;;3.70;;
56728;SDS011;42612;52.232;7.560;2024-01-16T07:24:06;8.88;;;3.38;;
56728;SDS011;42612;52.232;7.560;2024-01-16T07:26:32;6.10;;;2.67;;
56728;SDS011;42612;52.232;7.560;2024-01-16T07:28:57;6.18;;;2.70;;
56728;SDS011;42612;52.232;7.560;2024-01-16T07:31:23;4.65;;;2.38;;
56728;SDS011;42612;52.232;7.560;2024-01-16T07:33:49;4.40;;;2.83;;
56728;SDS011;42612;52.232;7.560;2024-01-16T07:36:15;4.97;;;2.70;;
56728;SDS011;42612;52.232;7.560;2024-01-16T07:38:40;7.50;;;2.65;;
56728;SDS011;42612;52.232;7.560;2024-01-16T07:41:06;12.88;;;6.85;;
56728;SDS011;42612;52.232;7.560;2024-01-16T07:43:32;16.98;;;8.38;;
56728;SDS011;42612;52.232;7.560;2024-01-16T07:45:58;6.38;;;2.67;;
56728;SDS011;42612;52.232;7.560;2024-01-16T07:48:23;3.55;;;2.22;;
56728;SDS011;42612;52.232;7.560;2024-01-16T07:50:49;4.60;;;2.35;;
56728;SDS011;42612;52.232;7.560;2024-01-16T07:53:15;3.63;;;2.42;;
56728;SDS011;42612;52.232;7.560;2024-01-16T07:55:42;5.63;;;2.85;;
56728;SDS011;42612;52.232;7.560;2024-01-16T07:58:11;4.45;;;2.15;;
56728;SDS011;42612;52.232;7.560;2024-01-16T08:00:37;4.38;;;2.20;;
56728;SDS011;42612;52.232;7.560;2024-01-16T08:03:04;3.30;;;1.95;;
56728;SDS011;42612;52.232;7.560;2024-01-16T08:05:37;6.05;;;2.30;;
56728;SDS011;42612;52.232;7.560;2024-01-16T08:08:03;3.00;;;1.80;;
56728;SDS011;42612;52.232;7.560;2024-01-16T08:10:30;2.72;;;2.10;;
56728;SDS011;42612;52.232;7.560;2024-01-16T08:12:56;3.05;;;2.35;;
56728;SDS011;42612;52.232;7.560;2024-01-16T08:15:21;3.47;;;2.30;;
56728;SDS011;42612;52.232;7.560;2024-01-16T08:17:47;5.10;;;2.28;;
56728;SDS011;42612;52.232;7.560;2024-01-16T08:20:13;3.80;;;2.05;;
56728;SDS011;42612;52.232;7.560;2024-01-16T08:22:39;3.85;;;2.55;;
56728;SDS011;42612;52.232;7.560;2024-01-16T08:25:04;5.22;;;2.80;;
56728;SDS011;42612;52.232;7.560;2024-01-16T08:27:31;5.68;;;2.40;;
56728;SDS011;42612;52.232;7.560;2024-01-16T08:29:57;3.20;;;2.50;;
56728;SDS011;42612;52.232;7.560;2024-01-16T08:32:23;5.10;;;2.20;;
56728;SDS011;42612;52.232;7.560;2024-01-16T08:34:49;4.20;;;2.00;;
56728;SDS011;42612;52.232;7.560;2024-01-16T08:37:14;7.50;;;2.63;;
56728;SDS011;42612;52.232;7.560;2024-01-16T08:39:40;4.60;;;2.25;;
56728;SDS011;42612;52.232;7.560;2024-01-16T08:42:06;6.40;;;2.30;;
56728;SDS011;42612;52.232;7.560;2024-01-16T08:44:35;4.38;;;2.80;;
56728;SDS011;42612;52.232;7.560;2024-01-16T08:47:00;4.90;;;2.25;;
56728;SDS011;42612;52.232;7.560;2024-01-16T08:49:29;5.45;;;2.78;;
56728;SDS011;42612;52.232;7.560;2024-01-16T08:51:55;4.10;;;2.40;;
56728;SDS011;42612;52.232;7.560;2024-01-16T08:54:21;5.82;;;2.30;;
56728;SDS011;42612;52.232;7.560;2024-01-16T08:56:47;6.57;;;3.40;;
56728;SDS011;42612;52.232;7.560;2024-01-16T08:59:14;4.85;;;2.40;;
56728;SDS011;42612;52.232;7.560;2024-01-16T09:01:39;2.55;;;1.85;;
56728;SDS011;42612;52.232;7.560;2024-01-16T09:04:07;2.83;;;1.77;;
56728;SDS011;42612;52.232;7.560;2024-01-16T09:06:33;5.15;;;2.40;;
56728;SDS011;42612;52.232;7.560;2024-01-16T09:08:58;4.10;;;2.50;;
56728;SDS011;42612;52.232;7.560;2024-01-16T09:11:24;4.65;;;2.38;;
56728;SDS011;42612;52.232;7.560;2024-01-16T09:13:50;8.90;;;2.60;;
56728;SDS011;42612;52.232;7.560;2024-01-16T09:16:16;3.67;;;1.75;;
56728;SDS011;42612;52.232;7.560;2024-01-16T09:18:42;4.32;;;2.55;;
56728;SDS011;42612;52.232;7.560;2024-01-16T09:21:09;4.65;;;2.42;;
56728;SDS011;42612;52.232;7.560;2024-01-16T09:23:34;9.43;;;2.78;;
56728;SDS011;42612;52.232;7.560;2024-01-16T09:26:00;5.28;;;2.00;;
56728;SDS011;42612;52.232;7.560;2024-01-16T09:28:26;6.00;;;2.50;;
56728;SDS011;42612;52.232;7.560;2024-01-16T09:30:53;3.45;;;2.70;;
56728;SDS011;42612;52.232;7.560;2024-01-16T09:33:21;4.78;;;2.88;;
56728;SDS011;42612;52.232;7.560;2024-01-16T09:35:48;3.50;;;2.50;;
56728;SDS011;42612;52.232;7.560;2024-01-16T09:38:14;4.22;;;2.15;;
56728;SDS011;42612;52.232;7.560;2024-01-16T09:40:40;3.85;;;2.47;;
56728;SDS011;42612;52.232;7.560;2024-01-16T09:43:06;3.67;;;2.60;;
56728;SDS011;42612;52.232;7.560;2024-01-16T09:45:33;4.97;;;2.92;;
56728;SDS011;42612;52.232;7.560;2024-01-16T09:48:21;7.57;;;2.83;;
56728;SDS011;42612;52.232;7.560;2024-01-16T09:50:47;4.28;;;2.28;;
56728;SDS011;42612;52.232;7.560;2024-01-16T09:53:13;4.53;;;2.50;;
56728;SDS011;42612;52.232;7.560;2024-01-16T09:55:38;4.10;;;2.28;;
56728;SDS011;42612;52.232;7.560;2024-01-16T09:58:04;5.32;;;2.47;;
56728;SDS011;42612;52.232;7.560;2024-01-16T10:00:50;4.50;;;2.83;;
56728;SDS011;42612;52.232;7.560;2024-01-16T10:03:17;3.88;;;2.95;;
56728;SDS011;42612;52.232;7.560;2024-01-16T10:05:44;4.53;;;2.87;;
56728;SDS011;42612;52.232;7.560;2024-01-16T10:08:10;6.28;;;2.58;;
56728;SDS011;42612;52.232;7.560;2024-01-16T10:10:36;7.32;;;3.65;;
56728;SDS011;42612;52.232;7.560;2024-01-16T10:13:02;5.40;;;3.20;;
56728;SDS011;42612;52.232;7.560;2024-01-16T10:15:28;4.90;;;2.58;;
56728;SDS011;42612;52.232;7.560;2024-01-16T10:17:55;6.05;;;3.25;;
56728;SDS011;42612;52.232;7.560;2024-01-16T10:20:32;5.53;;;3.05;;
56728;SDS011;42612;52.232;7.560;2024-01-16T10:22:59;5.72;;;3.13;;
56728;SDS011;42612;52.232;7.560;2024-01-16T10:25:24;7.85;;;3.25;;
56728;SDS011;42612;52.232;7.560;2024-01-16T10:28:02;4.85;;;2.92;;
56728;SDS011;42612;52.232;7.560;2024-01-16T10:30:30;9.98;;;3.53;;
56728;SDS011;42612;52.232;7.560;2024-01-16T10:33:00;7.20;;;3.47;;
56728;SDS011;42612;52.232;7.560;2024-01-16T10:35:41;8.98;;;3.75;;
56728;SDS011;42612;52.232;7.560;2024-01-16T10:38:06;9.70;;;3.88;;
56728;SDS011;42612;52.232;7.560;2024-01-16T10:40:32;8.75;;;3.50;;
56728;SDS011;42612;52.232;7.560;2024-01-16T10:43:05;5.57;;;3.70;;
56728;SDS011;42612;52.232;7.560;2024-01-16T10:45:32;6.32;;;3.65;;
56728;SDS011;42612;52.232;7.560;2024-01-16T10:50:28;10.07;;;4.50;;
56728;SDS011;42612;52.232;7.560;2024-01-16T10:52:55;8.27;;;5.20;;
56728;SDS011;42612;52.232;7.560;2024-01-16T10:55:24;8.48;;;5.20;;
56728;SDS011;42612;52.232;7.560;2024-01-16T10:57:53;8.43;;;4.97;;
56728;SDS011;42612;52.232;7.560;2024-01-16T11:00:21;13.13;;;5.75;;
56728;SDS011;42612;52.232;7.560;2024-01-16T11:02:51;8.68;;;5.10;;
56728;SDS011;42612;52.232;7.560;2024-01-16T11:05:33;9.05;;;5.20;;
56728;SDS011;42612;52.232;7.560;2024-01-16T11:07:59;8.43;;;5.80;;
56728;SDS011;42612;52.232;7.560;2024-01-16T11:10:28;7.43;;;4.60;;
56728;SDS011;42612;52.232;7.560;2024-01-16T11:12:56;6.57;;;4.88;;
56728;SDS011;42612;52.232;7.560;2024-01-16T11:15:27;7.85;;;5.25;;
56728;SDS011;42612;52.232;7.560;2024-01-16T11:17:54;8.03;;;5.63;;
56728;SDS011;42612;52.232;7.560;2024-01-16T11:20:22;10.05;;;5.32;;
56728;SDS011;42612;52.232;7.560;2024-01-16T11:22:49;23.10;;;6.22;;
56728;SDS011;42612;52.232;7.560;2024-01-16T11:25:16;7.20;;;5.18;;
56728;SDS011;42612;52.232;7.560;2024-01-16T11:27:43;6.55;;;4.43;;
56728;SDS011;42612;52.232;7.560;2024-01-16T11:30:28;5.85;;;4.53;;
56728;SDS011;42612;52.232;7.560;2024-01-16T11:32:56;6.88;;;4.10;;
56728;SDS011;42612;52.232;7.560;2024-01-16T11:35:58;12.20;;;4.80;;
56728;SDS011;42612;52.232;7.560;2024-01-16T11:38:16;8.30;;;4.00;;
56728;SDS011;42612;52.232;7.560;2024-01-16T11:40:44;5.63;;;3.92;;
56728;SDS011;42612;52.232;7.560;2024-01-16T11:46:07;7.22;;;3.92;;
56728;SDS011;42612;52.232;7.560;2024-01-16T11:48:34;6.70;;;4.40;;
56728;SDS011;42612;52.232;7.560;2024-01-16T11:51:00;6.78;;;3.97;;
56728;SDS011;42612;52.232;7.560;2024-01-16T11:53:49;9.73;;;4.15;;
56728;SDS011;42612;52.232;7.560;2024-01-16T12:01:52;5.25;;;3.15;;
56728;SDS011;42612;52.232;7.560;2024-01-16T12:04:22;8.32;;;3.78;;
56728;SDS011;42612;52.232;7.560;2024-01-16T12:06:58;11.13;;;3.70;;
56728;SDS011;42612;52.232;7.560;2024-01-16T12:09:25;5.82;;;2.72;;
56728;SDS011;42612;52.232;7.560;2024-01-16T12:12:01;7.75;;;3.33;;
56728;SDS011;42612;52.232;7.560;2024-01-16T12:14:28;7.32;;;2.90;;
56728;SDS011;42612;52.232;7.560;2024-01-16T12:19:39;6.85;;;2.70;;
56728;SDS011;42612;52.232;7.560;2024-01-16T12:22:10;4.85;;;2.90;;
56728;SDS011;42612;52.232;7.560;2024-01-16T12:24:38;5.28;;;2.72;;
56728;SDS011;42612;52.232;7.560;2024-01-16T12:27:04;9.85;;;2.90;;
56728;SDS011;42612;52.232;7.560;2024-01-16T12:29:30;8.00;;;3.28;;
56728;SDS011;42612;52.232;7.560;2024-01-16T12:32:07;4.57;;;2.88;;
56728;SDS011;42612;52.232;7.560;2024-01-16T12:34:34;5.95;;;2.70;;
56728;SDS011;42612;52.232;7.560;2024-01-16T12:37:14;6.25;;;2.88;;
56728;SDS011;42612;52.232;7.560;2024-01-16T12:39:40;5.05;;;2.72;;
56728;SDS011;42612;52.232;7.560;2024-01-16T12:42:07;4.43;;;2.70;;
56728;SDS011;42612;52.232;7.560;2024-01-16T12:44:37;5.30;;;2.55;;
56728;SDS011;42612;52.232;7.560;2024-01-16T12:47:03;8.15;;;3.03;;
56728;SDS011;42612;52.232;7.560;2024-01-16T12:49:29;4.05;;;2.35;;
56728;SDS011;42612;52.232;7.560;2024-01-16T12:55:00;6.18;;;2.88;;
56728;SDS011;42612;52.232;7.560;2024-01-16T12:57:26;4.63;;;2.40;;
56728;SDS011;42612;52.232;7.560;2024-01-16T12:59:54;5.32;;;2.45;;
56728;SDS011;42612;52.232;7.560;2024-01-16T13:02:22;7.93;;;2.85;;
56728;SDS011;42612;52.232;7.560;2024-01-16T13:05:01;5.20;;;1.92;;
56728;SDS011;42612;52.232;7.560;2024-01-16T13:07:29;4.65;;;2.10;;
56728;SDS011;42612;52.232;7.560;2024-01-16T13:10:08;7.25;;;2.55;;
56728;SDS011;42612;52.232;7.560;2024-01-16T13:12:40;5.47;;;2.42;;
56728;SDS011;42612;52.232;7.560;2024-01-16T13:15:07;6.70;;;2.38;;
56728;SDS011;42612;52.232;7.560;2024-01-16T13:17:36;5.78;;;2.47;;
56728;SDS011;42612;52.232;7.560;2024-01-16T13:20:02;7.05;;;2.95;;
56728;SDS011;42612;52.232;7.560;2024-01-16T13:22:32;4.15;;;1.85;;
56728;SDS011;42612;52.232;7.560;2024-01-16T13:24:58;4.95;;;2.45;;
56728;SDS011;42612;52.232;7.560;2024-01-16T13:27:23;3.47;;;2.00;;
56728;SDS011;42612;52.232;7.560;2024-01-16T13:29:50;7.22;;;2.72;;
56728;SDS011;42612;52.232;7.560;2024-01-16T13:32:16;4.00;;;2.38;;
56728;SDS011;42612;52.232;7.560;2024-01-16T13:34:41;5.70;;;2.35;;
56728;SDS011;42612;52.232;7.560;2024-01-16T13:37:14;5.15;;;2.05;;
56728;SDS011;42612;52.232;7.560;2024-01-16T13:39:46;6.55;;;2.47;;
56728;SDS011;42612;52.232;7.560;2024-01-16T13:42:12;3.85;;;2.30;;
56728;SDS011;42612;52.232;7.560;2024-01-16T13:44:37;3.42;;;2.28;;
56728;SDS011;42612;52.232;7.560;2024-01-16T13:47:03;8.90;;;2.40;;
56728;SDS011;42612;52.232;7.560;2024-01-16T13:49:30;3.90;;;2.40;;
56728;SDS011;42612;52.232;7.560;2024-01-16T13:51:55;5.45;;;2.42;;
56728;SDS011;42612;52.232;7.560;2024-01-16T13:54:21;4.35;;;2.17;;
56728;SDS011;42612;52.232;7.560;2024-01-16T13:56:47;5.72;;;2.38;;
56728;SDS011;42612;52.232;7.560;2024-01-16T13:59:12;11.77;;;2.50;;
56728;SDS011;42612;52.232;7.560;2024-01-16T14:01:38;3.97;;;2.00;;
56728;SDS011;42612;52.232;7.560;2024-01-16T14:04:04;4.60;;;1.92;;
56728;SDS011;42612;52.232;7.560;2024-01-16T14:06:30;6.10;;;2.10;;
56728;SDS011;42612;52.232;7.560;2024-01-16T14:08:56;2.55;;;1.88;;
56728;SDS011;42612;52.232;7.560;2024-01-16T14:11:21;4.13;;;2.08;;
56728;SDS011;42612;52.232;7.560;2024-01-16T14:13:47;3.78;;;2.28;;
56728;SDS011;42612;52.232;7.560;2024-01-16T14:16:13;3.45;;;1.70;;
56728;SDS011;42612;52.232;7.560;2024-01-16T14:18:39;8.65;;;2.22;;
56728;SDS011;42612;52.232;7.560;2024-01-16T14:21:04;6.93;;;2.65;;
56728;SDS011;42612;52.232;7.560;2024-01-16T14:23:30;5.45;;;2.45;;
56728;SDS011;42612;52.232;7.560;2024-01-16T14:25:57;5.40;;;2.33;;
56728;SDS011;42612;52.232;7.560;2024-01-16T14:28:22;5.00;;;2.08;;
56728;SDS011;42612;52.232;7.560;2024-01-16T14:30:51;2.05;;;1.52;;
56728;SDS011;42612;52.232;7.560;2024-01-16T14:33:16;7.57;;;1.98;;
56728;SDS011;42612;52.232;7.560;2024-01-16T14:35:42;4.47;;;2.17;;
56728;SDS011;42612;52.232;7.560;2024-01-16T14:38:09;3.63;;;2.25;;
56728;SDS011;42612;52.232;7.560;2024-01-16T14:40:35;6.60;;;2.38;;
56728;SDS011;42612;52.232;7.560;2024-01-16T14:43:01;6.70;;;2.00;;
56728;SDS011;42612;52.232;7.560;2024-01-16T14:45:29;4.07;;;2.45;;
56728;SDS011;42612;52.232;7.560;2024-01-16T14:47:56;5.65;;;2.47;;
56728;SDS011;42612;52.232;7.560;2024-01-16T14:50:22;3.63;;;1.90;;
56728;SDS011;42612;52.232;7.560;2024-01-16T14:52:49;7.80;;;2.10;;
56728;SDS011;42612;52.232;7.560;2024-01-16T14:55:16;5.50;;;2.40;;
56728;SDS011;42612;52.232;7.560;2024-01-16T14:57:42;3.55;;;2.00;;
56728;SDS011;42612;52.232;7.560;2024-01-16T15:00:12;5.78;;;2.40;;
56728;SDS011;42612;52.232;7.560;2024-01-16T15:02:40;5.65;;;2.40;;
56728;SDS011;42612;52.232;7.560;2024-01-16T15:05:08;3.92;;;2.60;;